sensor_id;sensor_type;location;lat;lon;timestamp;temperature;humidity
74224;SHT31;62585;49.706;18.216;2022-12-10T00:00:42;1.53;92.14
74224;SHT31;62585;49.706;18.216;2022-12-10T00:03:16;1.53;92.02
74224;SHT31;62585;49.706;18.216;2022-12-10T00:05:42;1.50;92.25
74224;SHT31;62585;49.706;18.216;2022-12-10T00:08:08;1.56;92.19
74224;SHT31;62585;49.706;18.216;2022-12-10T00:10:34;1.53;92.26
74224;SHT31;62585;49.706;18.216;2022-12-10T00:12:59;1.50;92.33
74224;SHT31;62585;49.706;18.216;2022-12-10T00:15:25;1.49;92.31
74224;SHT31;62585;49.706;18.216;2022-12-10T00:17:51;1.53;92.20
74224;SHT31;62585;49.706;18.216;2022-12-10T00:20:16;1.55;92.20
74224;SHT31;62585;49.706;18.216;2022-12-10T00:22:42;1.52;92.42
74224;SHT31;62585;49.706;18.216;2022-12-10T00:25:08;1.52;92.39
74224;SHT31;62585;49.706;18.216;2022-12-10T00:27:34;1.56;92.38
74224;SHT31;62585;49.706;18.216;2022-12-10T00:29:59;1.59;92.21
74224;SHT31;62585;49.706;18.216;2022-12-10T00:32:25;1.60;92.31
74224;SHT31;62585;49.706;18.216;2022-12-10T00:34:51;1.62;92.29
74224;SHT31;62585;49.706;18.216;2022-12-10T00:37:17;1.62;92.12
74224;SHT31;62585;49.706;18.216;2022-12-10T00:39:42;1.69;91.89
74224;SHT31;62585;49.706;18.216;2022-12-10T00:42:08;1.56;91.88
74224;SHT31;62585;49.706;18.216;2022-12-10T00:44:34;1.52;92.18
74224;SHT31;62585;49.706;18.216;2022-12-10T00:46:59;1.55;92.21
74224;SHT31;62585;49.706;18.216;2022-12-10T00:49:25;1.50;92.18
74224;SHT31;62585;49.706;18.216;2022-12-10T00:51:51;1.55;92.28
74224;SHT31;62585;49.706;18.216;2022-12-10T00:54:17;1.45;92.33
74224;SHT31;62585;49.706;18.216;2022-12-10T00:56:43;1.52;92.60
74224;SHT31;62585;49.706;18.216;2022-12-10T00:59:09;1.53;92.41
74224;SHT31;62585;49.706;18.216;2022-12-10T01:01:37;1.56;92.36
74224;SHT31;62585;49.706;18.216;2022-12-10T01:04:11;1.59;92.16
74224;SHT31;62585;49.706;18.216;2022-12-10T01:06:44;1.59;92.03
74224;SHT31;62585;49.706;18.216;2022-12-10T01:09:17;1.55;92.06
74224;SHT31;62585;49.706;18.216;2022-12-10T01:11:45;1.50;92.37
74224;SHT31;62585;49.706;18.216;2022-12-10T01:14:15;1.52;92.32
74224;SHT31;62585;49.706;18.216;2022-12-10T01:16:43;1.58;92.32
74224;SHT31;62585;49.706;18.216;2022-12-10T01:19:09;1.53;92.29
74224;SHT31;62585;49.706;18.216;2022-12-10T01:21:35;1.52;92.34
74224;SHT31;62585;49.706;18.216;2022-12-10T01:24:02;1.52;92.28
74224;SHT31;62585;49.706;18.216;2022-12-10T01:26:34;1.49;92.67
74224;SHT31;62585;49.706;18.216;2022-12-10T01:29:01;1.48;92.41
74224;SHT31;62585;49.706;18.216;2022-12-10T01:31:30;1.50;92.48
74224;SHT31;62585;49.706;18.216;2022-12-10T01:33:57;1.56;92.45
74224;SHT31;62585;49.706;18.216;2022-12-10T01:36:33;1.58;92.29
74224;SHT31;62585;49.706;18.216;2022-12-10T01:38:59;1.50;92.37
74224;SHT31;62585;49.706;18.216;2022-12-10T01:41:41;1.45;92.49
74224;SHT31;62585;49.706;18.216;2022-12-10T01:46:38;1.46;92.77
74224;SHT31;62585;49.706;18.216;2022-12-10T01:49:11;1.50;92.70
74224;SHT31;62585;49.706;18.216;2022-12-10T01:51:38;1.52;92.73
74224;SHT31;62585;49.706;18.216;2022-12-10T01:54:09;1.48;92.69
74224;SHT31;62585;49.706;18.216;2022-12-10T01:56:40;1.45;92.89
74224;SHT31;62585;49.706;18.216;2022-12-10T01:59:07;1.45;92.80
74224;SHT31;62585;49.706;18.216;2022-12-10T02:01:54;1.49;92.73
74224;SHT31;62585;49.706;18.216;2022-12-10T02:12:14;1.52;92.38
74224;SHT31;62585;49.706;18.216;2022-12-10T02:15:06;1.56;92.20
74224;SHT31;62585;49.706;18.216;2022-12-10T02:17:45;1.58;92.11
74224;SHT31;62585;49.706;18.216;2022-12-10T02:23:01;1.53;92.16
74224;SHT31;62585;49.706;18.216;2022-12-10T02:30:36;1.48;92.71
74224;SHT31;62585;49.706;18.216;2022-12-10T02:33:05;1.48;92.59
74224;SHT31;62585;49.706;18.216;2022-12-10T02:35:33;1.55;92.57
74224;SHT31;62585;49.706;18.216;2022-12-10T02:38:10;1.46;92.47
74224;SHT31;62585;49.706;18.216;2022-12-10T02:40:37;1.50;92.69
74224;SHT31;62585;49.706;18.216;2022-12-10T02:43:06;1.52;92.60
74224;SHT31;62585;49.706;18.216;2022-12-10T02:45:33;1.55;92.68
74224;SHT31;62585;49.706;18.216;2022-12-10T02:48:02;1.53;92.44
74224;SHT31;62585;49.706;18.216;2022-12-10T02:50:28;1.48;92.59
74224;SHT31;62585;49.706;18.216;2022-12-10T02:52:57;1.49;92.76
74224;SHT31;62585;49.706;18.216;2022-12-10T02:55:23;1.48;92.88
74224;SHT31;62585;49.706;18.216;2022-12-10T03:00:51;1.52;92.60
74224;SHT31;62585;49.706;18.216;2022-12-10T03:08:24;1.50;92.31
74224;SHT31;62585;49.706;18.216;2022-12-10T03:11:12;1.55;92.55
74224;SHT31;62585;49.706;18.216;2022-12-10T03:16:12;1.52;92.61
74224;SHT31;62585;49.706;18.216;2022-12-10T03:18:38;1.48;92.74
74224;SHT31;62585;49.706;18.216;2022-12-10T03:21:06;1.50;92.80
74224;SHT31;62585;49.706;18.216;2022-12-10T03:23:35;1.53;92.49
74224;SHT31;62585;49.706;18.216;2022-12-10T03:26:03;1.52;92.57
74224;SHT31;62585;49.706;18.216;2022-12-10T03:28:35;1.49;92.58
74224;SHT31;62585;49.706;18.216;2022-12-10T03:31:03;1.50;92.73
74224;SHT31;62585;49.706;18.216;2022-12-10T03:33:29;1.53;92.72
74224;SHT31;62585;49.706;18.216;2022-12-10T03:35:56;1.46;92.71
74224;SHT31;62585;49.706;18.216;2022-12-10T03:38:22;1.52;92.98
74224;SHT31;62585;49.706;18.216;2022-12-10T03:40:48;1.48;93.02
74224;SHT31;62585;49.706;18.216;2022-12-10T03:43:14;1.38;93.06
74224;SHT31;62585;49.706;18.216;2022-12-10T03:45:40;1.43;93.35
74224;SHT31;62585;49.706;18.216;2022-12-10T03:48:06;1.42;93.12
74224;SHT31;62585;49.706;18.216;2022-12-10T03:50:32;1.35;93.40
74224;SHT31;62585;49.706;18.216;2022-12-10T03:52:58;1.42;93.46
74224;SHT31;62585;49.706;18.216;2022-12-10T03:55:24;1.46;93.32
74224;SHT31;62585;49.706;18.216;2022-12-10T03:57:49;1.53;93.14
74224;SHT31;62585;49.706;18.216;2022-12-10T04:00:15;1.55;93.04
74224;SHT31;62585;49.706;18.216;2022-12-10T04:02:41;1.56;92.78
74224;SHT31;62585;49.706;18.216;2022-12-10T04:05:08;1.58;92.87
74224;SHT31;62585;49.706;18.216;2022-12-10T04:07:34;1.58;92.81
74224;SHT31;62585;49.706;18.216;2022-12-10T04:10:00;1.53;92.81
74224;SHT31;62585;49.706;18.216;2022-12-10T04:12:26;1.56;92.82
74224;SHT31;62585;49.706;18.216;2022-12-10T04:14:51;1.64;92.73
74224;SHT31;62585;49.706;18.216;2022-12-10T04:17:36;1.59;92.51
74224;SHT31;62585;49.706;18.216;2022-12-10T04:20:02;1.62;92.70
74224;SHT31;62585;49.706;18.216;2022-12-10T04:22:28;1.62;92.74
74224;SHT31;62585;49.706;18.216;2022-12-10T04:25:13;1.58;92.51
74224;SHT31;62585;49.706;18.216;2022-12-10T04:27:57;1.53;92.53
74224;SHT31;62585;49.706;18.216;2022-12-10T04:30:23;1.49;92.72
74224;SHT31;62585;49.706;18.216;2022-12-10T04:32:49;1.46;92.92
74224;SHT31;62585;49.706;18.216;2022-12-10T04:35:15;1.52;92.94
74224;SHT31;62585;49.706;18.216;2022-12-10T04:37:41;1.52;92.74
74224;SHT31;62585;49.706;18.216;2022-12-10T04:40:07;1.42;92.99
74224;SHT31;62585;49.706;18.216;2022-12-10T04:42:33;1.48;92.93
74224;SHT31;62585;49.706;18.216;2022-12-10T04:44:59;1.50;92.70
74224;SHT31;62585;49.706;18.216;2022-12-10T04:47:25;1.46;92.67
74224;SHT31;62585;49.706;18.216;2022-12-10T04:49:51;1.49;92.94
74224;SHT31;62585;49.706;18.216;2022-12-10T04:52:17;1.53;92.74
74224;SHT31;62585;49.706;18.216;2022-12-10T04:54:43;1.53;92.72
74224;SHT31;62585;49.706;18.216;2022-12-10T04:57:10;1.52;92.59
74224;SHT31;62585;49.706;18.216;2022-12-10T04:59:37;1.52;92.66
74224;SHT31;62585;49.706;18.216;2022-12-10T05:02:04;1.52;92.59
74224;SHT31;62585;49.706;18.216;2022-12-10T05:04:30;1.53;92.58
74224;SHT31;62585;49.706;18.216;2022-12-10T05:06:56;1.55;92.57
74224;SHT31;62585;49.706;18.216;2022-12-10T05:09:22;1.56;92.50
74224;SHT31;62585;49.706;18.216;2022-12-10T05:11:48;1.53;92.54
74224;SHT31;62585;49.706;18.216;2022-12-10T05:14:14;1.52;92.69
74224;SHT31;62585;49.706;18.216;2022-12-10T05:16:41;1.53;92.67
74224;SHT31;62585;49.706;18.216;2022-12-10T05:19:08;1.55;92.66
74224;SHT31;62585;49.706;18.216;2022-12-10T05:21:34;1.58;92.58
74224;SHT31;62585;49.706;18.216;2022-12-10T05:24:18;1.62;92.54
74224;SHT31;62585;49.706;18.216;2022-12-10T05:26:44;1.62;92.33
74224;SHT31;62585;49.706;18.216;2022-12-10T05:29:12;1.64;92.34
74224;SHT31;62585;49.706;18.216;2022-12-10T05:31:38;1.60;92.37
74224;SHT31;62585;49.706;18.216;2022-12-10T05:34:04;1.59;92.44
74224;SHT31;62585;49.706;18.216;2022-12-10T05:36:31;1.55;92.37
74224;SHT31;62585;49.706;18.216;2022-12-10T05:38:57;1.55;92.52
74224;SHT31;62585;49.706;18.216;2022-12-10T05:41:26;1.58;92.49
74224;SHT31;62585;49.706;18.216;2022-12-10T05:43:54;1.58;92.47
74224;SHT31;62585;49.706;18.216;2022-12-10T05:46:23;1.53;92.74
74224;SHT31;62585;49.706;18.216;2022-12-10T05:48:49;1.52;92.50
74224;SHT31;62585;49.706;18.216;2022-12-10T05:51:19;1.50;92.39
74224;SHT31;62585;49.706;18.216;2022-12-10T05:53:45;1.53;92.41
74224;SHT31;62585;49.706;18.216;2022-12-10T05:56:17;1.49;92.56
74224;SHT31;62585;49.706;18.216;2022-12-10T05:58:50;1.48;92.75
74224;SHT31;62585;49.706;18.216;2022-12-10T06:01:19;1.48;92.70
74224;SHT31;62585;49.706;18.216;2022-12-10T06:03:45;1.55;92.64
74224;SHT31;62585;49.706;18.216;2022-12-10T06:06:11;1.52;92.58
74224;SHT31;62585;49.706;18.216;2022-12-10T06:08:37;1.55;92.52
74224;SHT31;62585;49.706;18.216;2022-12-10T06:11:09;1.50;92.43
74224;SHT31;62585;49.706;18.216;2022-12-10T06:13:36;1.52;92.55
74224;SHT31;62585;49.706;18.216;2022-12-10T06:16:11;1.56;92.42
74224;SHT31;62585;49.706;18.216;2022-12-10T06:18:37;1.56;92.39
74224;SHT31;62585;49.706;18.216;2022-12-10T06:21:07;1.58;92.60
74224;SHT31;62585;49.706;18.216;2022-12-10T06:23:35;1.49;92.80
74224;SHT31;62585;49.706;18.216;2022-12-10T06:26:16;1.52;92.67
74224;SHT31;62585;49.706;18.216;2022-12-10T06:28:46;1.50;92.60
74224;SHT31;62585;49.706;18.216;2022-12-10T06:31:13;1.50;92.80
74224;SHT31;62585;49.706;18.216;2022-12-10T06:33:39;1.53;92.66
74224;SHT31;62585;49.706;18.216;2022-12-10T06:36:07;1.52;92.69
74224;SHT31;62585;49.706;18.216;2022-12-10T06:38:33;1.56;92.80
74224;SHT31;62585;49.706;18.216;2022-12-10T06:41:00;1.53;92.73
74224;SHT31;62585;49.706;18.216;2022-12-10T06:43:28;1.59;92.74
74224;SHT31;62585;49.706;18.216;2022-12-10T06:45:54;1.60;92.56
74224;SHT31;62585;49.706;18.216;2022-12-10T06:48:20;1.60;92.48
74224;SHT31;62585;49.706;18.216;2022-12-10T06:50:46;1.63;92.57
74224;SHT31;62585;49.706;18.216;2022-12-10T06:53:11;1.64;92.56
74224;SHT31;62585;49.706;18.216;2022-12-10T06:55:38;1.67;92.48
74224;SHT31;62585;49.706;18.216;2022-12-10T06:58:04;1.64;92.23
74224;SHT31;62585;49.706;18.216;2022-12-10T07:00:30;1.62;92.27
74224;SHT31;62585;49.706;18.216;2022-12-10T07:02:56;1.64;92.22
74224;SHT31;62585;49.706;18.216;2022-12-10T07:05:22;1.66;92.28
74224;SHT31;62585;49.706;18.216;2022-12-10T07:07:48;1.62;92.29
74224;SHT31;62585;49.706;18.216;2022-12-10T07:10:14;1.63;92.58
74224;SHT31;62585;49.706;18.216;2022-12-10T07:12:40;1.67;92.23
74224;SHT31;62585;49.706;18.216;2022-12-10T07:15:06;1.66;92.26
74224;SHT31;62585;49.706;18.216;2022-12-10T07:17:32;1.67;92.32
74224;SHT31;62585;49.706;18.216;2022-12-10T07:19:58;1.62;92.41
74224;SHT31;62585;49.706;18.216;2022-12-10T07:22:24;1.62;92.32
74224;SHT31;62585;49.706;18.216;2022-12-10T07:24:50;1.63;92.30
74224;SHT31;62585;49.706;18.216;2022-12-10T07:27:16;1.63;92.28
74224;SHT31;62585;49.706;18.216;2022-12-10T07:29:44;1.60;92.40
74224;SHT31;62585;49.706;18.216;2022-12-10T07:32:10;1.62;92.53
74224;SHT31;62585;49.706;18.216;2022-12-10T07:34:35;1.62;92.33
74224;SHT31;62585;49.706;18.216;2022-12-10T07:37:02;1.70;92.33
74224;SHT31;62585;49.706;18.216;2022-12-10T07:39:27;1.63;92.18
74224;SHT31;62585;49.706;18.216;2022-12-10T07:41:53;1.64;92.44
74224;SHT31;62585;49.706;18.216;2022-12-10T07:44:21;1.66;92.26
74224;SHT31;62585;49.706;18.216;2022-12-10T07:46:49;1.63;92.61
74224;SHT31;62585;49.706;18.216;2022-12-10T07:49:16;1.67;92.49
74224;SHT31;62585;49.706;18.216;2022-12-10T07:51:49;1.69;92.33
74224;SHT31;62585;49.706;18.216;2022-12-10T07:54:16;1.67;92.43
74224;SHT31;62585;49.706;18.216;2022-12-10T07:56:42;1.69;92.49
74224;SHT31;62585;49.706;18.216;2022-12-10T07:59:08;1.69;92.37
74224;SHT31;62585;49.706;18.216;2022-12-10T08:01:34;1.69;92.26
74224;SHT31;62585;49.706;18.216;2022-12-10T08:04:00;1.71;92.52
74224;SHT31;62585;49.706;18.216;2022-12-10T08:06:28;1.77;92.51
74224;SHT31;62585;49.706;18.216;2022-12-10T08:08:54;1.67;92.46
74224;SHT31;62585;49.706;18.216;2022-12-10T08:11:21;1.77;92.48
74224;SHT31;62585;49.706;18.216;2022-12-10T08:13:48;1.77;92.16
74224;SHT31;62585;49.706;18.216;2022-12-10T08:16:16;1.81;92.29
74224;SHT31;62585;49.706;18.216;2022-12-10T08:18:43;1.80;92.18
74224;SHT31;62585;49.706;18.216;2022-12-10T08:21:14;1.79;92.08
74224;SHT31;62585;49.706;18.216;2022-12-10T08:23:41;1.80;92.23
74224;SHT31;62585;49.706;18.216;2022-12-10T08:26:09;1.77;92.35
74224;SHT31;62585;49.706;18.216;2022-12-10T08:28:35;1.76;92.33
74224;SHT31;62585;49.706;18.216;2022-12-10T08:31:02;1.74;92.39
74224;SHT31;62585;49.706;18.216;2022-12-10T08:33:28;1.74;92.37
74224;SHT31;62585;49.706;18.216;2022-12-10T08:35:58;1.73;92.57
74224;SHT31;62585;49.706;18.216;2022-12-10T08:38:28;1.79;92.70
74224;SHT31;62585;49.706;18.216;2022-12-10T08:40:54;1.77;92.45
74224;SHT31;62585;49.706;18.216;2022-12-10T08:43:20;1.81;92.49
74224;SHT31;62585;49.706;18.216;2022-12-10T08:45:46;1.74;92.42
74224;SHT31;62585;49.706;18.216;2022-12-10T08:48:12;1.74;92.73
74224;SHT31;62585;49.706;18.216;2022-12-10T08:50:38;1.70;92.41
74224;SHT31;62585;49.706;18.216;2022-12-10T08:53:04;1.69;92.59
74224;SHT31;62585;49.706;18.216;2022-12-10T08:55:30;1.70;92.74
74224;SHT31;62585;49.706;18.216;2022-12-10T08:57:57;1.67;92.62
74224;SHT31;62585;49.706;18.216;2022-12-10T09:00:24;1.71;92.93
74224;SHT31;62585;49.706;18.216;2022-12-10T09:02:50;1.77;92.71
74224;SHT31;62585;49.706;18.216;2022-12-10T09:05:16;1.76;92.49
74224;SHT31;62585;49.706;18.216;2022-12-10T09:07:42;1.71;92.79
74224;SHT31;62585;49.706;18.216;2022-12-10T09:10:10;1.70;92.77
74224;SHT31;62585;49.706;18.216;2022-12-10T09:12:38;1.74;92.70
74224;SHT31;62585;49.706;18.216;2022-12-10T09:15:05;1.71;92.58
74224;SHT31;62585;49.706;18.216;2022-12-10T09:17:31;1.76;92.54
74224;SHT31;62585;49.706;18.216;2022-12-10T09:19:57;1.74;92.81
74224;SHT31;62585;49.706;18.216;2022-12-10T09:22:23;1.66;92.71
74224;SHT31;62585;49.706;18.216;2022-12-10T09:24:48;1.71;92.71
74224;SHT31;62585;49.706;18.216;2022-12-10T09:27:14;1.76;92.44
74224;SHT31;62585;49.706;18.216;2022-12-10T09:29:40;1.71;92.54
74224;SHT31;62585;49.706;18.216;2022-12-10T09:32:06;1.77;92.44
74224;SHT31;62585;49.706;18.216;2022-12-10T09:34:32;1.76;92.46
74224;SHT31;62585;49.706;18.216;2022-12-10T09:36:58;1.74;92.55
74224;SHT31;62585;49.706;18.216;2022-12-10T09:39:24;1.76;92.94
74224;SHT31;62585;49.706;18.216;2022-12-10T09:47:09;1.79;92.70
74224;SHT31;62585;49.706;18.216;2022-12-10T09:52:21;1.79;92.51
74224;SHT31;62585;49.706;18.216;2022-12-10T09:54:53;1.70;92.67
74224;SHT31;62585;49.706;18.216;2022-12-10T09:59:51;1.80;92.61
74224;SHT31;62585;49.706;18.216;2022-12-10T10:02:22;1.80;92.41
74224;SHT31;62585;49.706;18.216;2022-12-10T10:04:53;1.80;92.41
74224;SHT31;62585;49.706;18.216;2022-12-10T10:07:23;1.79;92.75
74224;SHT31;62585;49.706;18.216;2022-12-10T10:09:50;1.77;92.60
74224;SHT31;62585;49.706;18.216;2022-12-10T10:12:18;1.70;92.94
74224;SHT31;62585;49.706;18.216;2022-12-10T10:14:44;1.53;93.12
74224;SHT31;62585;49.706;18.216;2022-12-10T10:17:21;1.69;93.12
74224;SHT31;62585;49.706;18.216;2022-12-10T10:19:48;1.71;92.82
74224;SHT31;62585;49.706;18.216;2022-12-10T10:22:15;1.74;92.70
74224;SHT31;62585;49.706;18.216;2022-12-10T10:24:43;1.69;93.42
74224;SHT31;62585;49.706;18.216;2022-12-10T10:27:14;1.69;93.02
74224;SHT31;62585;49.706;18.216;2022-12-10T10:29:46;1.74;92.76
74224;SHT31;62585;49.706;18.216;2022-12-10T10:32:26;1.81;92.82
74224;SHT31;62585;49.706;18.216;2022-12-10T10:34:56;1.79;92.85
74224;SHT31;62585;49.706;18.216;2022-12-10T10:39:54;1.81;92.64
74224;SHT31;62585;49.706;18.216;2022-12-10T10:42:36;1.84;92.53
74224;SHT31;62585;49.706;18.216;2022-12-10T10:45:04;1.84;92.64
74224;SHT31;62585;49.706;18.216;2022-12-10T10:47:33;1.86;92.70
74224;SHT31;62585;49.706;18.216;2022-12-10T10:49:59;1.86;92.36
74224;SHT31;62585;49.706;18.216;2022-12-10T10:52:32;1.88;92.17
74224;SHT31;62585;49.706;18.216;2022-12-10T10:55:00;1.88;92.15
74224;SHT31;62585;49.706;18.216;2022-12-10T10:57:36;1.80;92.43
74224;SHT31;62585;49.706;18.216;2022-12-10T11:00:06;1.79;92.67
74224;SHT31;62585;49.706;18.216;2022-12-10T11:02:38;1.84;92.72
74224;SHT31;62585;49.706;18.216;2022-12-10T11:05:14;1.84;92.39
74224;SHT31;62585;49.706;18.216;2022-12-10T11:07:41;1.88;92.23
74224;SHT31;62585;49.706;18.216;2022-12-10T11:10:22;1.84;92.19
74224;SHT31;62585;49.706;18.216;2022-12-10T11:17:58;1.90;92.16
74224;SHT31;62585;49.706;18.216;2022-12-10T11:20:28;1.81;92.22
74224;SHT31;62585;49.706;18.216;2022-12-10T11:23:00;1.83;92.28
74224;SHT31;62585;49.706;18.216;2022-12-10T11:41:48;1.70;92.86
74224;SHT31;62585;49.706;18.216;2022-12-10T11:44:34;1.79;92.95
74224;SHT31;62585;49.706;18.216;2022-12-10T11:52:38;1.79;92.75
74224;SHT31;62585;49.706;18.216;2022-12-10T11:55:58;1.79;92.88
74224;SHT31;62585;49.706;18.216;2022-12-10T12:07:53;1.77;92.86
74224;SHT31;62585;49.706;18.216;2022-12-10T12:15:23;1.60;93.05
74224;SHT31;62585;49.706;18.216;2022-12-10T12:18:16;1.76;93.29
74224;SHT31;62585;49.706;18.216;2022-12-10T12:23:19;1.79;92.84
74224;SHT31;62585;49.706;18.216;2022-12-10T12:25:55;1.77;92.53
74224;SHT31;62585;49.706;18.216;2022-12-10T12:28:28;1.81;92.62
74224;SHT31;62585;49.706;18.216;2022-12-10T12:31:12;1.74;92.39
74224;SHT31;62585;49.706;18.216;2022-12-10T12:33:43;1.76;92.69
74224;SHT31;62585;49.706;18.216;2022-12-10T12:36:18;1.67;92.67
74224;SHT31;62585;49.706;18.216;2022-12-10T12:41:35;1.76;92.45
74224;SHT31;62585;49.706;18.216;2022-12-10T12:44:28;1.71;92.47
74224;SHT31;62585;49.706;18.216;2022-12-10T12:46:58;1.73;92.34
74224;SHT31;62585;49.706;18.216;2022-12-10T12:49:31;1.71;92.50
74224;SHT31;62585;49.706;18.216;2022-12-10T12:54:41;1.76;92.38
74224;SHT31;62585;49.706;18.216;2022-12-10T12:57:14;1.74;92.27
74224;SHT31;62585;49.706;18.216;2022-12-10T12:59:54;1.76;92.42
74224;SHT31;62585;49.706;18.216;2022-12-10T13:02:42;1.79;92.27
74224;SHT31;62585;49.706;18.216;2022-12-10T13:05:37;1.79;92.38
74224;SHT31;62585;49.706;18.216;2022-12-10T13:14:28;1.80;92.39
74224;SHT31;62585;49.706;18.216;2022-12-10T13:16:49;1.73;92.56
74224;SHT31;62585;49.706;18.216;2022-12-10T13:27:29;1.76;92.72
74224;SHT31;62585;49.706;18.216;2022-12-10T13:33:05;1.76;92.99
74224;SHT31;62585;49.706;18.216;2022-12-10T13:35:43;1.76;92.76
74224;SHT31;62585;49.706;18.216;2022-12-10T13:38:22;1.70;92.74
74224;SHT31;62585;49.706;18.216;2022-12-10T13:41:04;1.76;92.71
74224;SHT31;62585;49.706;18.216;2022-12-10T13:43:54;1.64;92.78
74224;SHT31;62585;49.706;18.216;2022-12-10T13:49:28;1.67;92.69
74224;SHT31;62585;49.706;18.216;2022-12-10T13:52:05;1.63;92.70
74224;SHT31;62585;49.706;18.216;2022-12-10T13:54:42;1.63;92.73
74224;SHT31;62585;49.706;18.216;2022-12-10T14:00:22;1.70;92.59
74224;SHT31;62585;49.706;18.216;2022-12-10T14:03:01;1.77;92.64
74224;SHT31;62585;49.706;18.216;2022-12-10T14:08:32;1.66;92.66
74224;SHT31;62585;49.706;18.216;2022-12-10T14:11:00;1.63;92.67
74224;SHT31;62585;49.706;18.216;2022-12-10T14:13:41;1.64;93.02
74224;SHT31;62585;49.706;18.216;2022-12-10T14:16:14;1.62;92.94
74224;SHT31;62585;49.706;18.216;2022-12-10T14:18:46;1.67;92.80
74224;SHT31;62585;49.706;18.216;2022-12-10T14:21:15;1.63;92.94
74224;SHT31;62585;49.706;18.216;2022-12-10T14:23:45;1.67;92.90
74224;SHT31;62585;49.706;18.216;2022-12-10T14:26:27;1.70;92.57
74224;SHT31;62585;49.706;18.216;2022-12-10T14:31:42;1.64;92.38
74224;SHT31;62585;49.706;18.216;2022-12-10T14:34:18;1.63;92.58
74224;SHT31;62585;49.706;18.216;2022-12-10T14:36:52;1.69;92.65
74224;SHT31;62585;49.706;18.216;2022-12-10T14:39:27;1.69;92.48
74224;SHT31;62585;49.706;18.216;2022-12-10T14:41:57;1.63;92.80
74224;SHT31;62585;49.706;18.216;2022-12-10T14:44:24;1.67;93.00
74224;SHT31;62585;49.706;18.216;2022-12-10T14:46:51;1.69;92.97
74224;SHT31;62585;49.706;18.216;2022-12-10T14:49:25;1.58;93.00
74224;SHT31;62585;49.706;18.216;2022-12-10T14:51:51;1.63;92.97
74224;SHT31;62585;49.706;18.216;2022-12-10T14:54:44;1.63;92.74
74224;SHT31;62585;49.706;18.216;2022-12-10T14:57:31;1.67;92.66
74224;SHT31;62585;49.706;18.216;2022-12-10T15:00:06;1.69;92.67
74224;SHT31;62585;49.706;18.216;2022-12-10T15:02:56;1.74;92.56
74224;SHT31;62585;49.706;18.216;2022-12-10T15:05:26;1.64;92.66
74224;SHT31;62585;49.706;18.216;2022-12-10T15:07:58;1.64;92.86
74224;SHT31;62585;49.706;18.216;2022-12-10T15:10:36;1.64;92.89
74224;SHT31;62585;49.706;18.216;2022-12-10T15:13:03;1.62;93.03
74224;SHT31;62585;49.706;18.216;2022-12-10T15:15:36;1.64;92.97
74224;SHT31;62585;49.706;18.216;2022-12-10T15:20:53;1.52;92.74
74224;SHT31;62585;49.706;18.216;2022-12-10T15:23:30;1.56;92.81
74224;SHT31;62585;49.706;18.216;2022-12-10T15:28:27;1.62;92.87
74224;SHT31;62585;49.706;18.216;2022-12-10T15:31:32;1.58;93.00
74224;SHT31;62585;49.706;18.216;2022-12-10T15:36:50;1.62;93.04
74224;SHT31;62585;49.706;18.216;2022-12-10T15:39:37;1.56;93.03
74224;SHT31;62585;49.706;18.216;2022-12-10T15:42:50;1.49;93.14
74224;SHT31;62585;49.706;18.216;2022-12-10T15:45:01;1.58;93.19
74224;SHT31;62585;49.706;18.216;2022-12-10T15:47:27;1.53;92.91
74224;SHT31;62585;49.706;18.216;2022-12-10T15:49:55;1.59;92.86
74224;SHT31;62585;49.706;18.216;2022-12-10T15:52:27;1.56;92.79
74224;SHT31;62585;49.706;18.216;2022-12-10T15:54:55;1.46;92.93
74224;SHT31;62585;49.706;18.216;2022-12-10T15:57:29;1.60;92.81
74224;SHT31;62585;49.706;18.216;2022-12-10T15:59:57;1.53;92.59
74224;SHT31;62585;49.706;18.216;2022-12-10T16:07:41;1.46;92.61
74224;SHT31;62585;49.706;18.216;2022-12-10T16:10:10;1.45;92.88
74224;SHT31;62585;49.706;18.216;2022-12-10T16:12:38;1.48;92.80
74224;SHT31;62585;49.706;18.216;2022-12-10T16:15:05;1.42;92.78
74224;SHT31;62585;49.706;18.216;2022-12-10T16:17:32;1.50;92.79
74224;SHT31;62585;49.706;18.216;2022-12-10T16:19:59;1.40;92.98
74224;SHT31;62585;49.706;18.216;2022-12-10T16:22:27;1.45;92.92
74224;SHT31;62585;49.706;18.216;2022-12-10T16:24:53;1.40;92.76
74224;SHT31;62585;49.706;18.216;2022-12-10T16:27:19;1.39;92.86
74224;SHT31;62585;49.706;18.216;2022-12-10T16:29:45;1.39;92.90
74224;SHT31;62585;49.706;18.216;2022-12-10T16:32:11;1.36;93.02
74224;SHT31;62585;49.706;18.216;2022-12-10T16:34:38;1.39;93.04
74224;SHT31;62585;49.706;18.216;2022-12-10T16:37:05;1.43;93.31
74224;SHT31;62585;49.706;18.216;2022-12-10T16:39:31;1.45;93.04
74224;SHT31;62585;49.706;18.216;2022-12-10T16:41:58;1.36;92.97
74224;SHT31;62585;49.706;18.216;2022-12-10T16:44:25;1.39;93.26
74224;SHT31;62585;49.706;18.216;2022-12-10T16:46:51;1.29;93.21
74224;SHT31;62585;49.706;18.216;2022-12-10T16:49:16;1.42;93.29
74224;SHT31;62585;49.706;18.216;2022-12-10T16:51:42;1.35;93.05
74224;SHT31;62585;49.706;18.216;2022-12-10T16:54:10;1.45;93.02
74224;SHT31;62585;49.706;18.216;2022-12-10T16:56:37;1.40;92.88
74224;SHT31;62585;49.706;18.216;2022-12-10T16:59:03;1.38;93.08
74224;SHT31;62585;49.706;18.216;2022-12-10T17:01:30;1.38;93.19
74224;SHT31;62585;49.706;18.216;2022-12-10T17:03:59;1.43;92.88
74224;SHT31;62585;49.706;18.216;2022-12-10T17:06:25;1.40;93.00
74224;SHT31;62585;49.706;18.216;2022-12-10T17:08:51;1.42;92.78
74224;SHT31;62585;49.706;18.216;2022-12-10T17:11:26;1.42;92.97
74224;SHT31;62585;49.706;18.216;2022-12-10T17:14:26;1.39;93.01
74224;SHT31;62585;49.706;18.216;2022-12-10T17:16:55;1.45;93.05
74224;SHT31;62585;49.706;18.216;2022-12-10T17:19:23;1.38;92.94
74224;SHT31;62585;49.706;18.216;2022-12-10T17:21:50;1.43;93.06
74224;SHT31;62585;49.706;18.216;2022-12-10T17:24:16;1.42;92.79
74224;SHT31;62585;49.706;18.216;2022-12-10T17:26:44;1.32;92.82
74224;SHT31;62585;49.706;18.216;2022-12-10T17:29:26;1.40;92.76
74224;SHT31;62585;49.706;18.216;2022-12-10T17:31:53;1.42;93.02
74224;SHT31;62585;49.706;18.216;2022-12-10T17:34:19;1.45;92.88
74224;SHT31;62585;49.706;18.216;2022-12-10T17:36:49;1.42;92.36
74224;SHT31;62585;49.706;18.216;2022-12-10T17:39:17;1.40;92.57
74224;SHT31;62585;49.706;18.216;2022-12-10T17:41:44;1.48;92.58
74224;SHT31;62585;49.706;18.216;2022-12-10T17:44:10;1.32;92.53
74224;SHT31;62585;49.706;18.216;2022-12-10T17:46:36;1.18;93.11
74224;SHT31;62585;49.706;18.216;2022-12-10T17:49:03;1.32;93.05
74224;SHT31;62585;49.706;18.216;2022-12-10T17:51:30;1.34;92.84
74224;SHT31;62585;49.706;18.216;2022-12-10T17:53:57;1.36;92.70
74224;SHT31;62585;49.706;18.216;2022-12-10T17:56:26;1.45;92.46
74224;SHT31;62585;49.706;18.216;2022-12-10T17:58:55;1.35;92.26